createdAt,value
2019-02-11T00:01:34.809Z,81.81
2019-02-11T00:04:06.642Z,81.81
2019-02-11T00:06:38.154Z,81.83
2019-02-11T00:09:10.377Z,81.45
2019-02-11T00:11:41.667Z,81.45
2019-02-11T00:14:13.190Z,82.29
2019-02-11T00:16:44.567Z,81.98
2019-02-11T00:19:16.044Z,83.29
2019-02-11T00:21:47.899Z,82.23
2019-02-11T00:24:19.196Z,81.42
2019-02-11T00:26:50.927Z,81.42
2019-02-11T00:29:22.380Z,81.42
2019-02-11T00:31:54.236Z,82.28
2019-02-11T00:34:25.683Z,82.89
2019-02-11T00:36:57.576Z,82.42
2019-02-11T00:39:29.124Z,82.42
2019-02-11T00:42:00.530Z,81.97
2019-02-11T00:44:32.134Z,81.34
2019-02-11T00:47:03.630Z,82.43
2019-02-11T00:49:34.927Z,82.48
2019-02-11T00:52:06.841Z,82.48
2019-02-11T00:54:38.536Z,82.30
2019-02-11T00:57:09.969Z,81.76
2019-02-11T00:59:41.562Z,81.76
2019-02-11T01:02:12.907Z,81.77
2019-02-11T01:04:44.381Z,81.33
2019-02-11T01:07:15.520Z,81.65
2019-02-11T01:09:48.303Z,81.65
2019-02-11T01:12:19.943Z,82.69
2019-02-11T01:14:51.455Z,82.13
2019-02-11T01:17:22.732Z,82.13
2019-02-11T01:19:54.395Z,81.97
2019-02-11T01:22:27.164Z,82.84
2019-02-11T01:24:58.624Z,82.84
2019-02-11T01:27:30.010Z,81.94
2019-02-11T01:30:01.715Z,82.13
2019-02-11T01:32:32.861Z,82.13
2019-02-11T01:35:04.350Z,82.12
2019-02-11T01:37:35.961Z,82.12
2019-02-11T01:40:09.872Z,82.76
2019-02-11T01:42:41.220Z,82.25
2019-02-11T01:45:14.254Z,82.73
2019-02-11T01:47:45.743Z,81.73
2019-02-11T01:50:17.408Z,81.83
2019-02-11T01:52:48.619Z,81.96
2019-02-11T01:55:19.956Z,81.71
2019-02-11T01:57:51.244Z,82.09
2019-02-11T02:00:22.734Z,81.82
2019-02-11T02:02:54.028Z,81.29
2019-02-11T02:05:25.652Z,81.25
2019-02-11T02:07:57.000Z,79.99
2019-02-11T02:10:28.420Z,79.66
2019-02-11T02:12:59.705Z,79.66
2019-02-11T02:15:30.945Z,68.64
2019-02-11T02:18:02.290Z,69.33
2019-02-11T02:20:33.539Z,69.19
2019-02-11T02:23:06.892Z,68.55
2019-02-11T02:25:38.890Z,68.09
2019-02-11T02:28:10.692Z,67.87
2019-02-11T02:30:42.155Z,67.41
2019-02-11T02:33:13.413Z,67.41
2019-02-11T02:35:44.508Z,67.33
2019-02-11T02:38:16.904Z,67.00
2019-02-11T02:40:51.628Z,67.00
2019-02-11T02:43:22.847Z,66.58
2019-02-11T02:45:53.939Z,66.58
2019-02-11T02:48:25.177Z,67.24
2019-02-11T02:50:56.184Z,67.07
2019-02-11T02:53:27.305Z,65.43
2019-02-11T02:55:58.535Z,65.43
2019-02-11T02:58:29.502Z,65.95
2019-02-11T03:01:00.551Z,65.95
2019-02-11T03:03:31.957Z,65.90
2019-02-11T03:06:03.071Z,65.90
2019-02-11T03:08:34.279Z,66.10
2019-02-11T03:11:05.342Z,66.35
2019-02-11T03:13:36.509Z,67.04
2019-02-11T03:16:07.635Z,67.04
2019-02-11T03:18:38.619Z,67.25
2019-02-11T03:21:10.256Z,66.31
2019-02-11T03:23:41.253Z,66.31
2019-02-11T03:26:12.212Z,65.75
2019-02-11T03:28:43.250Z,65.26
2019-02-11T03:31:14.414Z,66.44
2019-02-11T03:33:45.488Z,66.64
2019-02-11T03:36:16.561Z,65.89
2019-02-11T03:38:49.184Z,65.54
2019-02-11T03:41:20.667Z,65.55
2019-02-11T03:43:51.962Z,65.55
2019-02-11T03:46:23.277Z,65.75
2019-02-11T03:49:01.604Z,65.89
2019-02-11T03:51:32.666Z,64.99
2019-02-11T03:54:09.566Z,64.99
2019-02-11T03:56:40.634Z,65.33
2019-02-11T03:59:11.635Z,65.01
2019-02-11T04:01:47.038Z,65.01
2019-02-11T04:04:20.058Z,64.65
2019-02-11T04:06:53.034Z,65.48
2019-02-11T04:09:26.019Z,65.48
2019-02-11T04:11:57.121Z,65.74
2019-02-11T04:14:28.071Z,66.06
2019-02-11T04:16:59.025Z,65.89
2019-02-11T04:19:30.261Z,65.89
2019-02-11T04:22:08.891Z,64.45
2019-02-11T04:24:40.246Z,64.71
2019-02-11T04:27:11.698Z,64.71
2019-02-11T04:29:43.138Z,64.63
2019-02-11T04:32:14.591Z,64.63
2019-02-11T04:34:46.000Z,65.43
2019-02-11T04:37:17.667Z,65.28
2019-02-11T04:39:49.052Z,65.38
2019-02-11T04:42:20.560Z,65.32
2019-02-11T04:44:52.921Z,65.14
2019-02-11T04:47:27.539Z,65.00
2019-02-11T04:49:58.838Z,65.00
2019-02-11T04:52:30.155Z,65.61
2019-02-11T04:55:01.207Z,65.46
2019-02-11T04:57:32.663Z,65.43
2019-02-11T05:00:04.286Z,64.69
2019-02-11T05:02:36.044Z,64.69
2019-02-11T05:05:08.014Z,65.19
2019-02-11T05:07:39.390Z,65.19
2019-02-11T05:10:12.079Z,65.03
2019-02-11T05:12:43.605Z,65.37
2019-02-11T05:15:14.717Z,65.52
2019-02-11T05:17:46.385Z,67.37
2019-02-11T05:20:17.849Z,65.36
2019-02-11T05:22:49.279Z,66.63
2019-02-11T05:25:20.457Z,62.18
2019-02-11T05:27:52.169Z,61.24
2019-02-11T05:30:23.463Z,62.00
2019-02-11T05:32:54.720Z,62.29
2019-02-11T05:35:26.049Z,62.29
2019-02-11T05:37:57.367Z,58.03
2019-02-11T05:40:28.548Z,58.68
2019-02-11T05:42:59.905Z,60.85
2019-02-11T05:45:30.907Z,58.75
2019-02-11T05:48:02.362Z,59.50
2019-02-11T05:50:33.529Z,59.50
2019-02-11T05:53:04.964Z,59.88
2019-02-11T05:55:36.594Z,59.74
2019-02-11T05:58:08.144Z,60.84
2019-02-11T06:00:39.467Z,59.33
2019-02-11T06:03:11.454Z,59.33
2019-02-11T06:05:43.348Z,61.02
2019-02-11T06:08:14.609Z,61.11
2019-02-11T06:10:46.317Z,61.11
2019-02-11T06:13:17.819Z,60.74
2019-02-11T06:15:49.424Z,59.32
2019-02-11T06:18:20.573Z,59.17
2019-02-11T06:20:52.221Z,59.17
2019-02-11T06:23:23.503Z,58.57
2019-02-11T06:25:55.351Z,58.21
2019-02-11T06:28:27.095Z,57.97
2019-02-11T06:30:58.304Z,57.97
2019-02-11T06:33:30.180Z,56.21
2019-02-11T06:36:11.448Z,56.21
2019-02-11T06:38:35.069Z,54.67
2019-02-11T06:41:06.210Z,54.67
2019-02-11T06:43:38.796Z,55.42
2019-02-11T06:46:10.097Z,53.61
2019-02-11T06:48:41.683Z,53.61
2019-02-11T06:51:13.311Z,53.41
2019-02-11T06:53:45.044Z,52.63
2019-02-11T06:56:16.337Z,53.21
2019-02-11T06:58:48.152Z,53.21
2019-02-11T07:01:19.595Z,51.53
2019-02-11T07:03:51.473Z,53.18
2019-02-11T07:06:22.920Z,51.29
2019-02-11T07:08:54.120Z,51.29
2019-02-11T07:11:25.618Z,50.20
2019-02-11T07:13:57.043Z,49.24
2019-02-11T07:16:28.466Z,48.69
2019-02-11T07:19:00.088Z,50.02
2019-02-11T07:21:31.471Z,50.02
2019-02-11T07:24:02.960Z,46.58
2019-02-11T07:26:34.263Z,47.89
2019-02-11T07:29:05.632Z,47.89
2019-02-11T07:31:37.118Z,45.65
2019-02-11T07:34:08.391Z,46.15
2019-02-11T07:36:39.825Z,45.93
2019-02-11T07:39:11.778Z,45.93
2019-02-11T07:42:02.375Z,49.20
2019-02-11T07:44:39.052Z,46.18
2019-02-11T07:47:10.600Z,46.18
2019-02-11T07:49:42.125Z,47.91
2019-02-11T07:52:13.909Z,45.45
2019-02-11T07:54:45.439Z,45.45
2019-02-11T07:57:18.446Z,46.38
2019-02-11T07:59:49.575Z,45.14
2019-02-11T08:02:21.226Z,45.14
2019-02-11T08:04:52.707Z,45.09
2019-02-11T08:07:24.059Z,45.58
2019-02-11T08:09:55.326Z,45.58
2019-02-11T08:12:26.800Z,46.64
2019-02-11T08:14:58.035Z,46.69
2019-02-11T08:17:29.707Z,47.32
2019-02-11T08:20:01.149Z,47.32
2019-02-11T08:22:32.737Z,46.97
2019-02-11T08:25:05.564Z,46.06
2019-02-11T08:27:37.036Z,43.08
2019-02-11T08:30:08.790Z,43.61
2019-02-11T08:32:39.969Z,43.61
2019-02-11T08:35:13.625Z,46.41
2019-02-11T08:37:46.502Z,46.11
2019-02-11T08:40:18.327Z,47.29
2019-02-11T08:42:50.607Z,46.06
2019-02-11T08:45:22.760Z,45.23
2019-02-11T08:47:56.432Z,45.83
2019-02-11T08:50:28.184Z,45.83
2019-02-11T08:52:59.692Z,45.87
2019-02-11T08:55:31.199Z,45.52
2019-02-11T08:58:02.752Z,45.70
2019-02-11T09:00:34.151Z,47.31
2019-02-11T09:03:05.471Z,45.67
2019-02-11T09:05:36.623Z,45.67
2019-02-11T09:08:08.372Z,45.42
2019-02-11T09:10:39.884Z,47.27
2019-02-11T09:13:11.442Z,45.35
2019-02-11T09:15:42.630Z,45.35
2019-02-11T09:18:14.354Z,46.53
2019-02-11T09:20:45.889Z,46.06
2019-02-11T09:23:17.825Z,46.06
2019-02-11T09:25:50.133Z,46.73
2019-02-11T09:28:21.345Z,47.82
2019-02-11T09:30:52.558Z,46.64
2019-02-11T09:33:23.536Z,46.64
2019-02-11T09:35:54.626Z,46.50
2019-02-11T09:38:26.396Z,47.25
2019-02-11T09:40:57.529Z,48.43
2019-02-11T09:43:28.713Z,48.34
2019-02-11T09:46:03.845Z,48.95
2019-02-11T09:48:35.608Z,48.95
2019-02-11T09:51:07.385Z,49.50
2019-02-11T09:53:39.490Z,49.27
2019-02-11T09:56:13.155Z,46.66
2019-02-11T09:58:44.108Z,47.47
2019-02-11T10:01:15.224Z,46.13
2019-02-11T10:03:46.423Z,46.24
2019-02-11T10:06:17.394Z,46.52
2019-02-11T10:08:48.467Z,46.52
2019-02-11T10:11:19.534Z,49.13
2019-02-11T10:13:50.594Z,50.46
2019-02-11T10:16:22.330Z,50.46
2019-02-11T10:18:53.737Z,51.06
2019-02-11T10:21:24.950Z,51.06
2019-02-11T10:23:57.038Z,52.14
2019-02-11T10:26:28.694Z,51.16
2019-02-11T10:28:59.827Z,51.08
2019-02-11T10:31:31.043Z,51.08
2019-02-11T10:34:02.505Z,50.64
2019-02-11T10:36:33.741Z,52.06
2019-02-11T10:39:06.223Z,50.97
2019-02-11T10:41:39.014Z,50.96
2019-02-11T10:44:10.643Z,50.96
2019-02-11T10:46:46.757Z,50.78
2019-02-11T10:49:17.875Z,50.78
2019-02-11T10:51:49.295Z,52.43
2019-02-11T10:54:20.472Z,52.52
2019-02-11T10:56:52.159Z,51.37
2019-02-11T10:59:24.407Z,51.37
2019-02-11T11:01:55.419Z,51.94
2019-02-11T11:04:26.719Z,53.44
2019-02-11T11:06:58.539Z,50.95
2019-02-11T11:09:31.335Z,49.30
2019-02-11T11:12:02.568Z,50.73
2019-02-11T11:14:35.043Z,52.38
2019-02-11T11:17:08.229Z,52.38
2019-02-11T11:19:41.558Z,52.39
2019-02-11T11:22:12.798Z,52.82
2019-02-11T11:24:43.995Z,52.58
2019-02-11T11:27:15.261Z,52.58
2019-02-11T11:29:46.393Z,53.19
2019-02-11T11:32:19.494Z,54.15
2019-02-11T11:34:50.518Z,52.80
2019-02-11T11:37:21.675Z,52.79
2019-02-11T11:39:52.751Z,51.90
2019-02-11T11:42:24.000Z,50.72
2019-02-11T11:44:55.201Z,50.40
2019-02-11T11:47:28.133Z,50.40
2019-02-11T11:49:59.322Z,51.24
2019-02-11T11:52:30.697Z,51.81
2019-02-11T11:55:02.085Z,51.81
2019-02-11T11:57:34.704Z,53.10
2019-02-11T12:00:12.277Z,53.44
2019-02-11T12:02:59.569Z,53.44
2019-02-11T12:05:17.668Z,53.24
2019-02-11T12:07:48.927Z,52.84
2019-02-11T12:10:20.322Z,52.84
2019-02-11T12:12:51.785Z,54.00
2019-02-11T12:15:24.447Z,54.42
2019-02-11T12:17:55.860Z,54.42
2019-02-11T12:20:27.425Z,54.92
2019-02-11T12:22:58.818Z,54.70
2019-02-11T12:25:30.548Z,54.09
2019-02-11T12:28:02.393Z,54.09
2019-02-11T12:30:34.236Z,55.62
2019-02-11T12:33:05.670Z,56.51
2019-02-11T12:35:37.162Z,56.51
2019-02-11T12:38:09.000Z,57.27
2019-02-11T12:40:40.717Z,57.27
2019-02-11T12:43:11.918Z,57.22
2019-02-11T12:45:43.696Z,58.33
2019-02-11T12:48:16.481Z,58.33
2019-02-11T12:50:49.355Z,57.29
2019-02-11T12:53:20.483Z,58.13
2019-02-11T12:55:51.731Z,58.06
2019-02-11T12:58:22.946Z,58.42
2019-02-11T13:00:55.382Z,58.46
2019-02-11T13:03:27.003Z,58.46
2019-02-11T13:05:59.323Z,58.78
2019-02-11T13:08:30.419Z,59.43
2019-02-11T13:11:01.742Z,59.43
2019-02-11T13:13:33.099Z,59.41
2019-02-11T13:16:05.323Z,59.77
2019-02-11T13:18:39.450Z,60.35
2019-02-11T13:21:09.374Z,60.35
2019-02-11T13:23:40.845Z,59.43
2019-02-11T13:26:13.500Z,59.43
2019-02-11T13:28:45.016Z,59.62
2019-02-11T13:31:16.864Z,58.89
2019-02-11T13:33:48.328Z,59.12
2019-02-11T13:36:19.747Z,60.23
2019-02-11T13:38:51.392Z,61.85
2019-02-11T13:41:22.868Z,62.38
2019-02-11T13:43:54.411Z,62.95
2019-02-11T13:46:25.933Z,64.21
2019-02-11T13:48:57.387Z,64.21
2019-02-11T13:51:29.238Z,64.30
2019-02-11T13:54:00.852Z,64.90
2019-02-11T13:56:33.117Z,64.90
2019-02-11T13:59:05.172Z,64.33
2019-02-11T14:01:37.601Z,64.37
2019-02-11T14:04:11.267Z,64.37
2019-02-11T14:06:43.017Z,64.26
2019-02-11T14:09:15.259Z,64.51
2019-02-11T14:11:47.030Z,65.03
2019-02-11T14:14:20.009Z,65.03
2019-02-11T14:16:51.647Z,65.11
2019-02-11T14:19:23.161Z,65.11
2019-02-11T14:21:54.498Z,65.26
2019-02-11T14:24:26.413Z,65.41
2019-02-11T14:26:57.777Z,65.45
2019-02-11T14:29:29.431Z,65.82
2019-02-11T14:32:01.579Z,65.82
2019-02-11T14:34:33.662Z,66.28
2019-02-11T14:37:05.380Z,65.95
2019-02-11T14:39:36.905Z,65.95
2019-02-11T14:42:08.713Z,65.98
2019-02-11T14:44:40.154Z,65.98
2019-02-11T14:47:11.737Z,66.12
2019-02-11T14:49:43.021Z,66.29
2019-02-11T14:52:14.577Z,66.52
2019-02-11T14:54:47.750Z,66.72
2019-02-11T14:57:20.629Z,66.94
2019-02-11T14:59:51.880Z,67.77
2019-02-11T15:02:23.593Z,68.35
2019-02-11T15:04:55.412Z,65.14
2019-02-11T15:07:27.256Z,66.46
2019-02-11T15:09:58.908Z,66.46
2019-02-11T15:12:30.577Z,66.66
2019-02-11T15:15:01.785Z,66.31
2019-02-11T15:17:33.247Z,67.00
2019-02-11T15:20:04.524Z,67.08
2019-02-11T15:22:36.241Z,67.08
2019-02-11T15:25:08.889Z,66.18
2019-02-11T15:27:40.506Z,66.69
2019-02-11T15:30:15.969Z,66.69
2019-02-11T15:32:47.968Z,66.62
2019-02-11T15:35:20.006Z,65.80
2019-02-11T15:37:51.271Z,65.80
2019-02-11T15:40:23.551Z,66.15
2019-02-11T15:42:55.132Z,66.31
2019-02-11T15:45:28.262Z,66.31
2019-02-11T15:48:00.755Z,67.72
2019-02-11T15:50:32.426Z,68.57
2019-02-11T15:53:04.083Z,68.92
2019-02-11T15:55:35.674Z,69.50
2019-02-11T15:58:07.232Z,69.50
2019-02-11T16:00:39.678Z,70.05
2019-02-11T16:03:11.184Z,70.18
2019-02-11T16:05:49.516Z,70.72
2019-02-11T16:08:17.735Z,70.72
2019-02-11T16:10:49.493Z,71.03
2019-02-11T16:13:20.799Z,71.89
2019-02-11T16:15:52.755Z,71.89
2019-02-11T16:18:24.062Z,71.81
2019-02-11T16:20:55.713Z,71.61
2019-02-11T16:23:27.583Z,72.17
2019-02-11T16:25:59.514Z,72.07
2019-02-11T16:28:31.009Z,72.11
2019-02-11T16:31:02.449Z,72.21
2019-02-11T16:33:33.931Z,71.95
2019-02-11T16:36:05.767Z,72.18
2019-02-11T16:38:37.166Z,72.02
2019-02-11T16:41:08.677Z,71.94
2019-02-11T16:43:40.125Z,71.94
2019-02-11T16:46:11.428Z,72.45
2019-02-11T16:48:42.908Z,72.45
2019-02-11T16:51:14.633Z,72.29
2019-02-11T16:53:45.994Z,72.29
2019-02-11T16:56:17.656Z,72.62
2019-02-11T16:58:49.203Z,69.76
2019-02-11T17:01:20.687Z,69.76
2019-02-11T17:03:52.027Z,68.18
2019-02-11T17:06:23.442Z,68.41
2019-02-11T17:08:55.982Z,68.41
2019-02-11T17:11:27.113Z,69.10
2019-02-11T17:13:58.461Z,68.63
2019-02-11T17:16:32.674Z,68.63
2019-02-11T17:19:09.436Z,67.95
2019-02-11T17:21:37.414Z,67.95
2019-02-11T17:24:08.808Z,68.22
2019-02-11T17:26:40.397Z,68.22
2019-02-11T17:29:12.020Z,67.57
2019-02-11T17:31:43.515Z,67.57
2019-02-11T17:34:15.105Z,67.64
2019-02-11T17:36:47.751Z,67.64
2019-02-11T17:39:19.152Z,67.69
2019-02-11T17:41:50.465Z,68.50
2019-02-11T17:44:22.292Z,68.50
2019-02-11T17:46:53.656Z,70.11
2019-02-11T17:49:25.116Z,70.20
2019-02-11T17:51:56.794Z,70.20
2019-02-11T17:54:28.330Z,70.63
2019-02-11T17:56:59.890Z,70.87
2019-02-11T17:59:31.356Z,70.87
2019-02-11T18:02:06.287Z,71.17
2019-02-11T18:04:37.999Z,71.17
2019-02-11T18:07:09.696Z,70.91
2019-02-11T18:09:44.527Z,71.22
2019-02-11T18:12:16.649Z,71.75
2019-02-11T18:14:48.139Z,71.99
2019-02-11T18:17:19.803Z,71.78
2019-02-11T18:19:51.454Z,71.78
2019-02-11T18:22:24.211Z,71.73
2019-02-11T18:24:55.697Z,71.84
2019-02-11T18:27:27.327Z,71.45
2019-02-11T18:29:58.881Z,71.45
2019-02-11T18:32:30.387Z,71.35
2019-02-11T18:35:01.910Z,72.58
2019-02-11T18:37:33.333Z,72.39
2019-02-11T18:40:04.832Z,72.39
2019-02-11T18:42:36.445Z,72.52
2019-02-11T18:45:09.879Z,72.52
2019-02-11T18:47:41.420Z,72.87
2019-02-11T18:50:15.513Z,73.28
2019-02-11T18:52:46.956Z,73.28
2019-02-11T18:55:18.698Z,73.50
2019-02-11T18:57:50.410Z,73.35
2019-02-11T19:00:21.935Z,73.01
2019-02-11T19:02:54.085Z,71.93
2019-02-11T19:05:25.440Z,71.80
2019-02-11T19:07:57.473Z,71.80
2019-02-11T19:10:28.991Z,71.39
2019-02-11T19:13:00.506Z,71.39
2019-02-11T19:15:32.088Z,71.72
2019-02-11T19:18:03.565Z,73.84
2019-02-11T19:20:34.888Z,73.92
2019-02-11T19:23:06.393Z,73.92
2019-02-11T19:25:37.743Z,73.49
2019-02-11T19:28:09.179Z,73.40
2019-02-11T19:30:40.578Z,73.16
2019-02-11T19:33:12.184Z,73.16
2019-02-11T19:35:43.569Z,73.72
2019-02-11T19:38:15.080Z,72.25
2019-02-11T19:40:46.432Z,72.75
2019-02-11T19:43:18.082Z,72.86
2019-02-11T19:45:49.398Z,72.86
2019-02-11T19:48:21.090Z,72.85
2019-02-11T19:50:52.572Z,73.47
2019-02-11T19:53:24.242Z,73.47
2019-02-11T19:55:55.551Z,73.58
2019-02-11T19:58:27.149Z,73.58
2019-02-11T20:00:58.572Z,74.32
2019-02-11T20:03:30.270Z,74.00
2019-02-11T20:06:03.577Z,74.23
2019-02-11T20:08:35.072Z,74.23
2019-02-11T20:11:06.856Z,74.39
2019-02-11T20:13:38.452Z,74.18
2019-02-11T20:16:09.817Z,74.18
2019-02-11T20:18:42.131Z,74.46
2019-02-11T20:21:13.562Z,74.65
2019-02-11T20:23:45.076Z,74.71
2019-02-11T20:26:16.367Z,75.55
2019-02-11T20:28:48.167Z,75.55
2019-02-11T20:31:19.492Z,75.47
2019-02-11T20:33:50.835Z,75.26
2019-02-11T20:36:22.356Z,75.45
2019-02-11T20:38:53.958Z,76.51
2019-02-11T20:41:25.434Z,76.51
2019-02-11T20:43:56.965Z,75.71
2019-02-11T20:46:28.951Z,75.49
2019-02-11T20:49:00.406Z,75.56
2019-02-11T20:51:31.765Z,75.56
2019-02-11T20:54:03.222Z,75.58
2019-02-11T20:56:38.124Z,75.91
2019-02-11T20:59:09.744Z,76.08
2019-02-11T21:01:41.366Z,76.08
2019-02-11T21:04:13.849Z,74.94
2019-02-11T21:06:45.350Z,76.16
2019-02-11T21:09:16.896Z,76.58
2019-02-11T21:11:49.471Z,76.82
2019-02-11T21:14:20.722Z,76.82
2019-02-11T21:16:52.079Z,76.36
2019-02-11T21:19:23.358Z,76.65
2019-02-11T21:21:56.547Z,75.70
2019-02-11T21:24:27.968Z,75.81
2019-02-11T21:27:00.384Z,75.81
2019-02-11T21:29:31.960Z,75.58
2019-02-11T21:32:03.518Z,76.58
2019-02-11T21:34:34.689Z,76.64
2019-02-11T21:37:06.547Z,77.27
2019-02-11T21:39:37.847Z,77.27
2019-02-11T21:42:09.271Z,77.27
2019-02-11T21:44:40.775Z,76.76
2019-02-11T21:47:12.210Z,77.27
2019-02-11T21:49:43.563Z,77.31
2019-02-11T21:52:15.037Z,77.28
2019-02-11T21:54:46.260Z,77.36
2019-02-11T21:57:18.031Z,77.71
2019-02-11T21:59:51.334Z,78.10
2019-02-11T22:02:23.047Z,78.10
2019-02-11T22:04:54.777Z,77.91
2019-02-11T22:07:26.317Z,77.41
2019-02-11T22:09:57.842Z,77.18
2019-02-11T22:12:29.161Z,77.06
2019-02-11T22:15:01.252Z,77.75
2019-02-11T22:17:32.590Z,77.28
2019-02-11T22:20:04.989Z,77.28
2019-02-11T22:22:36.752Z,77.08
2019-02-11T22:25:08.935Z,77.08
2019-02-11T22:27:40.603Z,77.34
2019-02-11T22:30:17.334Z,77.34
2019-02-11T22:32:49.795Z,77.64
2019-02-11T22:35:21.959Z,77.99
2019-02-11T22:37:53.722Z,77.99
2019-02-11T22:40:24.964Z,78.77
2019-02-11T22:42:56.453Z,79.84
2019-02-11T22:45:28.322Z,79.84
2019-02-11T22:48:00.653Z,80.80
2019-02-11T22:50:32.029Z,80.50
2019-02-11T22:53:03.395Z,81.66
2019-02-11T22:55:34.963Z,81.66
2019-02-11T22:58:07.771Z,81.59
2019-02-11T23:00:47.702Z,81.78
2019-02-11T23:03:20.422Z,81.88
2019-02-11T23:05:52.707Z,82.09
2019-02-11T23:08:24.074Z,81.81
2019-02-11T23:10:55.450Z,81.14
2019-02-11T23:13:27.010Z,80.93
2019-02-11T23:15:58.829Z,80.93
2019-02-11T23:18:30.283Z,80.79
2019-02-11T23:21:01.582Z,81.45
2019-02-11T23:23:32.966Z,82.37
2019-02-11T23:26:04.337Z,82.02
2019-02-11T23:28:36.022Z,82.02
2019-02-11T23:31:07.653Z,82.46
2019-02-11T23:33:39.099Z,83.06
2019-02-11T23:36:10.783Z,81.93
2019-02-11T23:38:42.066Z,81.72
2019-02-11T23:41:13.395Z,82.51
2019-02-11T23:43:44.949Z,82.51
2019-02-11T23:46:19.357Z,81.71
2019-02-11T23:48:50.800Z,81.60
2019-02-11T23:51:22.440Z,80.75
2019-02-11T23:53:53.901Z,80.75
2019-02-11T23:56:27.070Z,80.71
2019-02-11T23:58:58.357Z,81.29
